sensor_id;sensor_type;location;lat;lon;timestamp;P1;durP1;ratioP1;P2;durP2;ratioP2
24357;SDS011;13668;52.154;5.580;2023-11-18T00:01:01;33.22;;;14.38;;
24357;SDS011;13668;52.154;5.580;2023-11-18T00:03:28;29.38;;;14.20;;
24357;SDS011;13668;52.154;5.580;2023-11-18T00:05:54;29.10;;;14.88;;
24357;SDS011;13668;52.154;5.580;2023-11-18T00:08:20;34.42;;;16.15;;
24357;SDS011;13668;52.154;5.580;2023-11-18T00:10:46;35.85;;;16.20;;
24357;SDS011;13668;52.154;5.580;2023-11-18T00:13:15;31.23;;;15.50;;
24357;SDS011;13668;52.154;5.580;2023-11-18T00:15:41;33.28;;;14.93;;
24357;SDS011;13668;52.154;5.580;2023-11-18T00:18:07;30.93;;;14.30;;
24357;SDS011;13668;52.154;5.580;2023-11-18T00:20:33;29.20;;;14.82;;
24357;SDS011;13668;52.154;5.580;2023-11-18T00:23:02;30.52;;;13.60;;
24357;SDS011;13668;52.154;5.580;2023-11-18T00:25:29;34.75;;;15.75;;
24357;SDS011;13668;52.154;5.580;2023-11-18T00:27:55;26.55;;;14.20;;
24357;SDS011;13668;52.154;5.580;2023-11-18T00:30:21;27.42;;;14.23;;
24357;SDS011;13668;52.154;5.580;2023-11-18T00:32:47;28.20;;;14.90;;
24357;SDS011;13668;52.154;5.580;2023-11-18T00:35:13;30.13;;;15.13;;
24357;SDS011;13668;52.154;5.580;2023-11-18T00:37:39;28.80;;;15.50;;
24357;SDS011;13668;52.154;5.580;2023-11-18T00:40:06;30.83;;;14.75;;
24357;SDS011;13668;52.154;5.580;2023-11-18T00:42:32;28.52;;;14.48;;
24357;SDS011;13668;52.154;5.580;2023-11-18T00:44:59;27.48;;;14.05;;
24357;SDS011;13668;52.154;5.580;2023-11-18T00:47:25;33.40;;;15.52;;
24357;SDS011;13668;52.154;5.580;2023-11-18T00:49:51;33.03;;;16.33;;
24357;SDS011;13668;52.154;5.580;2023-11-18T00:52:18;29.52;;;15.07;;
24357;SDS011;13668;52.154;5.580;2023-11-18T00:54:44;31.08;;;14.75;;
24357;SDS011;13668;52.154;5.580;2023-11-18T00:57:10;29.52;;;14.30;;
24357;SDS011;13668;52.154;5.580;2023-11-18T00:59:36;33.33;;;15.15;;
24357;SDS011;13668;52.154;5.580;2023-11-18T01:02:02;28.70;;;13.93;;
24357;SDS011;13668;52.154;5.580;2023-11-18T01:04:29;34.20;;;14.20;;
24357;SDS011;13668;52.154;5.580;2023-11-18T01:06:58;31.40;;;14.18;;
24357;SDS011;13668;52.154;5.580;2023-11-18T01:09:24;27.67;;;14.60;;
24357;SDS011;13668;52.154;5.580;2023-11-18T01:11:50;28.05;;;13.38;;
24357;SDS011;13668;52.154;5.580;2023-11-18T01:14:16;35.25;;;16.40;;
24357;SDS011;13668;52.154;5.580;2023-11-18T01:16:42;39.22;;;17.58;;
24357;SDS011;13668;52.154;5.580;2023-11-18T01:19:09;30.27;;;14.63;;
24357;SDS011;13668;52.154;5.580;2023-11-18T01:21:35;30.83;;;14.23;;
24357;SDS011;13668;52.154;5.580;2023-11-18T01:24:01;32.22;;;15.40;;
24357;SDS011;13668;52.154;5.580;2023-11-18T01:26:28;28.50;;;14.48;;
24357;SDS011;13668;52.154;5.580;2023-11-18T01:28:54;30.92;;;15.27;;
24357;SDS011;13668;52.154;5.580;2023-11-18T01:31:20;32.97;;;15.68;;
24357;SDS011;13668;52.154;5.580;2023-11-18T01:33:46;34.70;;;14.25;;
24357;SDS011;13668;52.154;5.580;2023-11-18T01:36:15;33.58;;;15.55;;
24357;SDS011;13668;52.154;5.580;2023-11-18T01:38:42;28.95;;;14.75;;
24357;SDS011;13668;52.154;5.580;2023-11-18T01:41:08;29.58;;;14.35;;
24357;SDS011;13668;52.154;5.580;2023-11-18T01:43:34;32.90;;;14.38;;
24357;SDS011;13668;52.154;5.580;2023-11-18T01:46:04;25.40;;;13.50;;
24357;SDS011;13668;52.154;5.580;2023-11-18T01:48:32;27.58;;;13.48;;
24357;SDS011;13668;52.154;5.580;2023-11-18T01:50:58;32.42;;;14.77;;
24357;SDS011;13668;52.154;5.580;2023-11-18T01:53:24;29.08;;;15.82;;
24357;SDS011;13668;52.154;5.580;2023-11-18T01:55:52;31.50;;;16.20;;
24357;SDS011;13668;52.154;5.580;2023-11-18T01:58:18;31.40;;;15.98;;
24357;SDS011;13668;52.154;5.580;2023-11-18T02:00:48;33.95;;;16.25;;
24357;SDS011;13668;52.154;5.580;2023-11-18T02:03:14;30.00;;;14.40;;
24357;SDS011;13668;52.154;5.580;2023-11-18T02:05:43;32.42;;;15.68;;
24357;SDS011;13668;52.154;5.580;2023-11-18T02:08:09;32.63;;;16.25;;
24357;SDS011;13668;52.154;5.580;2023-11-18T02:10:42;40.20;;;17.17;;
24357;SDS011;13668;52.154;5.580;2023-11-18T02:13:13;32.38;;;15.88;;
24357;SDS011;13668;52.154;5.580;2023-11-18T02:15:45;30.73;;;16.15;;
24357;SDS011;13668;52.154;5.580;2023-11-18T02:18:11;36.60;;;15.77;;
24357;SDS011;13668;52.154;5.580;2023-11-18T02:20:38;34.83;;;16.17;;
24357;SDS011;13668;52.154;5.580;2023-11-18T02:23:04;39.08;;;17.27;;
24357;SDS011;13668;52.154;5.580;2023-11-18T02:25:32;29.10;;;15.70;;
24357;SDS011;13668;52.154;5.580;2023-11-18T02:27:59;37.25;;;16.80;;
24357;SDS011;13668;52.154;5.580;2023-11-18T02:30:28;37.10;;;17.00;;
24357;SDS011;13668;52.154;5.580;2023-11-18T02:32:58;35.65;;;16.08;;
24357;SDS011;13668;52.154;5.580;2023-11-18T02:35:32;38.92;;;17.83;;
24357;SDS011;13668;52.154;5.580;2023-11-18T02:38:00;37.72;;;17.85;;
24357;SDS011;13668;52.154;5.580;2023-11-18T02:40:31;35.40;;;16.35;;
24357;SDS011;13668;52.154;5.580;2023-11-18T02:42:58;32.63;;;17.58;;
24357;SDS011;13668;52.154;5.580;2023-11-18T02:45:25;38.50;;;17.25;;
24357;SDS011;13668;52.154;5.580;2023-11-18T02:47:52;32.70;;;15.95;;
24357;SDS011;13668;52.154;5.580;2023-11-18T02:50:23;38.50;;;18.73;;
24357;SDS011;13668;52.154;5.580;2023-11-18T02:52:49;37.95;;;17.25;;
24357;SDS011;13668;52.154;5.580;2023-11-18T02:55:15;37.33;;;18.52;;
24357;SDS011;13668;52.154;5.580;2023-11-18T02:57:41;36.75;;;18.20;;
24357;SDS011;13668;52.154;5.580;2023-11-18T03:00:07;31.35;;;15.50;;
24357;SDS011;13668;52.154;5.580;2023-11-18T03:02:42;36.25;;;17.52;;
24357;SDS011;13668;52.154;5.580;2023-11-18T03:05:08;39.72;;;18.23;;
24357;SDS011;13668;52.154;5.580;2023-11-18T03:07:37;39.63;;;18.13;;
24357;SDS011;13668;52.154;5.580;2023-11-18T03:10:03;35.65;;;16.40;;
24357;SDS011;13668;52.154;5.580;2023-11-18T03:12:34;32.78;;;16.70;;
24357;SDS011;13668;52.154;5.580;2023-11-18T03:15:00;31.13;;;15.32;;
24357;SDS011;13668;52.154;5.580;2023-11-18T03:17:27;39.60;;;15.95;;
24357;SDS011;13668;52.154;5.580;2023-11-18T03:19:54;30.35;;;16.02;;
24357;SDS011;13668;52.154;5.580;2023-11-18T03:22:20;37.05;;;16.52;;
24357;SDS011;13668;52.154;5.580;2023-11-18T03:24:50;33.28;;;16.98;;
24357;SDS011;13668;52.154;5.580;2023-11-18T03:27:16;37.50;;;16.70;;
24357;SDS011;13668;52.154;5.580;2023-11-18T03:29:43;32.47;;;15.90;;
24357;SDS011;13668;52.154;5.580;2023-11-18T03:32:11;30.85;;;15.80;;
24357;SDS011;13668;52.154;5.580;2023-11-18T03:34:37;32.80;;;14.60;;
24357;SDS011;13668;52.154;5.580;2023-11-18T03:37:03;30.67;;;16.73;;
24357;SDS011;13668;52.154;5.580;2023-11-18T03:39:29;29.70;;;13.98;;
24357;SDS011;13668;52.154;5.580;2023-11-18T03:41:55;38.22;;;16.35;;
24357;SDS011;13668;52.154;5.580;2023-11-18T03:44:22;30.00;;;15.00;;
24357;SDS011;13668;52.154;5.580;2023-11-18T03:46:49;35.88;;;16.20;;
24357;SDS011;13668;52.154;5.580;2023-11-18T03:49:15;33.33;;;16.33;;
24357;SDS011;13668;52.154;5.580;2023-11-18T03:51:41;33.40;;;16.17;;
24357;SDS011;13668;52.154;5.580;2023-11-18T03:54:07;32.30;;;15.10;;
24357;SDS011;13668;52.154;5.580;2023-11-18T03:56:33;30.45;;;14.68;;
24357;SDS011;13668;52.154;5.580;2023-11-18T03:58:59;42.45;;;17.25;;
24357;SDS011;13668;52.154;5.580;2023-11-18T04:01:25;28.95;;;15.55;;
24357;SDS011;13668;52.154;5.580;2023-11-18T04:03:52;35.28;;;16.88;;
24357;SDS011;13668;52.154;5.580;2023-11-18T04:06:19;30.63;;;15.40;;
24357;SDS011;13668;52.154;5.580;2023-11-18T04:08:46;33.25;;;16.13;;
24357;SDS011;13668;52.154;5.580;2023-11-18T04:11:13;33.55;;;16.83;;
24357;SDS011;13668;52.154;5.580;2023-11-18T04:13:39;34.75;;;15.32;;
24357;SDS011;13668;52.154;5.580;2023-11-18T04:16:09;36.85;;;15.95;;
24357;SDS011;13668;52.154;5.580;2023-11-18T04:18:38;30.98;;;15.73;;
24357;SDS011;13668;52.154;5.580;2023-11-18T04:21:05;31.30;;;16.05;;
24357;SDS011;13668;52.154;5.580;2023-11-18T04:23:32;33.40;;;15.75;;
24357;SDS011;13668;52.154;5.580;2023-11-18T04:25:59;37.72;;;17.08;;
24357;SDS011;13668;52.154;5.580;2023-11-18T04:28:25;31.42;;;15.50;;
24357;SDS011;13668;52.154;5.580;2023-11-18T04:30:52;34.30;;;16.98;;
24357;SDS011;13668;52.154;5.580;2023-11-18T04:33:18;37.38;;;16.88;;
24357;SDS011;13668;52.154;5.580;2023-11-18T04:35:45;34.00;;;16.67;;
24357;SDS011;13668;52.154;5.580;2023-11-18T04:38:18;34.70;;;16.40;;
24357;SDS011;13668;52.154;5.580;2023-11-18T04:40:44;37.63;;;17.38;;
24357;SDS011;13668;52.154;5.580;2023-11-18T04:43:11;36.15;;;16.70;;
24357;SDS011;13668;52.154;5.580;2023-11-18T04:45:37;37.10;;;15.60;;
24357;SDS011;13668;52.154;5.580;2023-11-18T04:48:04;35.45;;;18.73;;
24357;SDS011;13668;52.154;5.580;2023-11-18T04:50:30;35.97;;;17.95;;
24357;SDS011;13668;52.154;5.580;2023-11-18T04:52:57;35.75;;;16.70;;
24357;SDS011;13668;52.154;5.580;2023-11-18T04:55:23;36.65;;;16.10;;
24357;SDS011;13668;52.154;5.580;2023-11-18T04:57:52;35.45;;;16.33;;
24357;SDS011;13668;52.154;5.580;2023-11-18T05:00:18;37.75;;;17.63;;
24357;SDS011;13668;52.154;5.580;2023-11-18T05:02:45;39.85;;;16.75;;
24357;SDS011;13668;52.154;5.580;2023-11-18T05:05:12;39.35;;;17.80;;
24357;SDS011;13668;52.154;5.580;2023-11-18T05:07:39;37.88;;;17.35;;
24357;SDS011;13668;52.154;5.580;2023-11-18T05:10:06;39.58;;;17.48;;
24357;SDS011;13668;52.154;5.580;2023-11-18T05:12:35;40.53;;;18.25;;
24357;SDS011;13668;52.154;5.580;2023-11-18T05:15:02;38.50;;;17.23;;
24357;SDS011;13668;52.154;5.580;2023-11-18T05:17:31;39.67;;;18.65;;
24357;SDS011;13668;52.154;5.580;2023-11-18T05:19:57;38.05;;;16.48;;
24357;SDS011;13668;52.154;5.580;2023-11-18T05:22:25;37.55;;;16.98;;
24357;SDS011;13668;52.154;5.580;2023-11-18T05:24:51;37.78;;;16.65;;
24357;SDS011;13668;52.154;5.580;2023-11-18T05:27:18;36.63;;;18.98;;
24357;SDS011;13668;52.154;5.580;2023-11-18T05:29:43;44.17;;;18.38;;
24357;SDS011;13668;52.154;5.580;2023-11-18T05:32:13;40.75;;;16.67;;
24357;SDS011;13668;52.154;5.580;2023-11-18T05:34:39;36.45;;;15.77;;
24357;SDS011;13668;52.154;5.580;2023-11-18T05:37:05;35.20;;;17.52;;
24357;SDS011;13668;52.154;5.580;2023-11-18T05:39:32;41.30;;;16.67;;
24357;SDS011;13668;52.154;5.580;2023-11-18T05:42:00;33.78;;;15.20;;
24357;SDS011;13668;52.154;5.580;2023-11-18T05:44:26;36.90;;;16.95;;
24357;SDS011;13668;52.154;5.580;2023-11-18T05:46:58;31.35;;;15.32;;
24357;SDS011;13668;52.154;5.580;2023-11-18T05:49:24;36.70;;;15.18;;
24357;SDS011;13668;52.154;5.580;2023-11-18T05:51:50;31.40;;;14.43;;
24357;SDS011;13668;52.154;5.580;2023-11-18T05:54:16;31.75;;;14.82;;
24357;SDS011;13668;52.154;5.580;2023-11-18T05:56:43;33.22;;;14.80;;
24357;SDS011;13668;52.154;5.580;2023-11-18T05:59:08;32.75;;;15.40;;
24357;SDS011;13668;52.154;5.580;2023-11-18T06:01:35;34.38;;;15.68;;
24357;SDS011;13668;52.154;5.580;2023-11-18T06:04:02;36.05;;;16.52;;
24357;SDS011;13668;52.154;5.580;2023-11-18T06:06:28;35.38;;;16.02;;
24357;SDS011;13668;52.154;5.580;2023-11-18T06:08:58;31.70;;;14.65;;
24357;SDS011;13668;52.154;5.580;2023-11-18T06:11:29;29.42;;;15.30;;
24357;SDS011;13668;52.154;5.580;2023-11-18T06:13:56;32.42;;;14.65;;
24357;SDS011;13668;52.154;5.580;2023-11-18T06:16:22;32.00;;;16.60;;
24357;SDS011;13668;52.154;5.580;2023-11-18T06:18:55;31.15;;;13.98;;
24357;SDS011;13668;52.154;5.580;2023-11-18T06:21:22;35.80;;;15.88;;
24357;SDS011;13668;52.154;5.580;2023-11-18T06:23:55;30.23;;;14.93;;
24357;SDS011;13668;52.154;5.580;2023-11-18T06:26:22;33.15;;;15.02;;
24357;SDS011;13668;52.154;5.580;2023-11-18T06:28:49;35.08;;;14.25;;
24357;SDS011;13668;52.154;5.580;2023-11-18T06:31:15;32.22;;;13.05;;
24357;SDS011;13668;52.154;5.580;2023-11-18T06:33:42;27.48;;;13.35;;
24357;SDS011;13668;52.154;5.580;2023-11-18T06:36:18;26.40;;;12.55;;
24357;SDS011;13668;52.154;5.580;2023-11-18T06:38:45;30.33;;;13.65;;
24357;SDS011;13668;52.154;5.580;2023-11-18T06:41:12;32.65;;;13.25;;
24357;SDS011;13668;52.154;5.580;2023-11-18T06:43:41;32.05;;;12.77;;
24357;SDS011;13668;52.154;5.580;2023-11-18T06:46:22;26.13;;;12.98;;
24357;SDS011;13668;52.154;5.580;2023-11-18T06:48:48;32.88;;;13.98;;
24357;SDS011;13668;52.154;5.580;2023-11-18T06:51:15;28.65;;;12.98;;
24357;SDS011;13668;52.154;5.580;2023-11-18T06:53:41;25.70;;;13.05;;
24357;SDS011;13668;52.154;5.580;2023-11-18T06:56:08;29.05;;;12.65;;
24357;SDS011;13668;52.154;5.580;2023-11-18T06:58:36;33.83;;;14.45;;
24357;SDS011;13668;52.154;5.580;2023-11-18T07:01:02;29.25;;;12.45;;
24357;SDS011;13668;52.154;5.580;2023-11-18T07:03:30;24.05;;;12.18;;
24357;SDS011;13668;52.154;5.580;2023-11-18T07:05:56;28.88;;;13.27;;
24357;SDS011;13668;52.154;5.580;2023-11-18T07:08:25;28.95;;;13.32;;
24357;SDS011;13668;52.154;5.580;2023-11-18T07:10:51;29.88;;;13.52;;
24357;SDS011;13668;52.154;5.580;2023-11-18T07:13:17;23.50;;;12.18;;
24357;SDS011;13668;52.154;5.580;2023-11-18T07:15:43;27.70;;;13.05;;
24357;SDS011;13668;52.154;5.580;2023-11-18T07:18:09;22.35;;;12.40;;
24357;SDS011;13668;52.154;5.580;2023-11-18T07:20:38;29.73;;;13.98;;
24357;SDS011;13668;52.154;5.580;2023-11-18T07:23:04;27.23;;;13.65;;
24357;SDS011;13668;52.154;5.580;2023-11-18T07:25:33;26.33;;;12.27;;
24357;SDS011;13668;52.154;5.580;2023-11-18T07:27:59;26.13;;;12.63;;
24357;SDS011;13668;52.154;5.580;2023-11-18T07:30:28;26.35;;;12.48;;
24357;SDS011;13668;52.154;5.580;2023-11-18T07:32:58;26.35;;;12.55;;
24357;SDS011;13668;52.154;5.580;2023-11-18T07:35:26;22.13;;;12.30;;
24357;SDS011;13668;52.154;5.580;2023-11-18T07:37:52;24.52;;;12.98;;
24357;SDS011;13668;52.154;5.580;2023-11-18T07:40:18;36.65;;;14.13;;
24357;SDS011;13668;52.154;5.580;2023-11-18T07:42:53;26.40;;;13.98;;
24357;SDS011;13668;52.154;5.580;2023-11-18T07:45:18;25.10;;;13.70;;
24357;SDS011;13668;52.154;5.580;2023-11-18T07:47:48;29.17;;;13.30;;
24357;SDS011;13668;52.154;5.580;2023-11-18T07:50:16;28.15;;;13.35;;
24357;SDS011;13668;52.154;5.580;2023-11-18T07:52:42;25.88;;;13.07;;
24357;SDS011;13668;52.154;5.580;2023-11-18T07:55:08;22.85;;;13.02;;
24357;SDS011;13668;52.154;5.580;2023-11-18T07:57:38;25.38;;;12.85;;
24357;SDS011;13668;52.154;5.580;2023-11-18T08:00:04;27.38;;;14.40;;
24357;SDS011;13668;52.154;5.580;2023-11-18T08:02:36;24.02;;;12.05;;
24357;SDS011;13668;52.154;5.580;2023-11-18T08:05:03;21.65;;;12.65;;
24357;SDS011;13668;52.154;5.580;2023-11-18T08:07:32;22.20;;;12.63;;
24357;SDS011;13668;52.154;5.580;2023-11-18T08:09:58;25.88;;;12.10;;
24357;SDS011;13668;52.154;5.580;2023-11-18T08:12:24;26.88;;;13.63;;
24357;SDS011;13668;52.154;5.580;2023-11-18T08:14:53;21.23;;;13.20;;
24357;SDS011;13668;52.154;5.580;2023-11-18T08:17:19;21.30;;;11.85;;
24357;SDS011;13668;52.154;5.580;2023-11-18T08:19:45;18.17;;;10.98;;
24357;SDS011;13668;52.154;5.580;2023-11-18T08:22:11;21.00;;;12.00;;
24357;SDS011;13668;52.154;5.580;2023-11-18T08:24:38;24.15;;;12.07;;
24357;SDS011;13668;52.154;5.580;2023-11-18T08:27:04;20.17;;;11.38;;
24357;SDS011;13668;52.154;5.580;2023-11-18T08:29:32;22.60;;;11.05;;
24357;SDS011;13668;52.154;5.580;2023-11-18T08:32:01;19.85;;;10.27;;
24357;SDS011;13668;52.154;5.580;2023-11-18T08:34:27;17.70;;;10.52;;
24357;SDS011;13668;52.154;5.580;2023-11-18T08:36:52;19.85;;;11.18;;
24357;SDS011;13668;52.154;5.580;2023-11-18T08:39:18;19.42;;;10.90;;
24357;SDS011;13668;52.154;5.580;2023-11-18T08:41:45;17.13;;;10.93;;
24357;SDS011;13668;52.154;5.580;2023-11-18T08:44:21;19.10;;;10.77;;
24357;SDS011;13668;52.154;5.580;2023-11-18T08:46:47;17.55;;;9.85;;
24357;SDS011;13668;52.154;5.580;2023-11-18T08:49:13;19.85;;;10.23;;
24357;SDS011;13668;52.154;5.580;2023-11-18T08:51:46;23.13;;;10.35;;
24357;SDS011;13668;52.154;5.580;2023-11-18T08:54:14;17.13;;;9.70;;
24357;SDS011;13668;52.154;5.580;2023-11-18T08:56:53;21.08;;;10.43;;
24357;SDS011;13668;52.154;5.580;2023-11-18T08:59:22;20.35;;;10.95;;
24357;SDS011;13668;52.154;5.580;2023-11-18T09:01:52;15.98;;;8.95;;
24357;SDS011;13668;52.154;5.580;2023-11-18T09:04:24;20.00;;;10.20;;
24357;SDS011;13668;52.154;5.580;2023-11-18T09:06:50;21.88;;;9.82;;
24357;SDS011;13668;52.154;5.580;2023-11-18T09:09:19;17.95;;;8.88;;
24357;SDS011;13668;52.154;5.580;2023-11-18T09:11:51;19.38;;;9.57;;
24357;SDS011;13668;52.154;5.580;2023-11-18T09:14:21;25.25;;;9.95;;
24357;SDS011;13668;52.154;5.580;2023-11-18T09:16:49;18.83;;;10.00;;
24357;SDS011;13668;52.154;5.580;2023-11-18T09:19:23;13.98;;;9.07;;
24357;SDS011;13668;52.154;5.580;2023-11-18T09:21:49;16.13;;;8.15;;
24357;SDS011;13668;52.154;5.580;2023-11-18T09:24:16;13.95;;;8.10;;
24357;SDS011;13668;52.154;5.580;2023-11-18T09:26:45;14.35;;;7.68;;
24357;SDS011;13668;52.154;5.580;2023-11-18T09:29:13;12.20;;;7.30;;
24357;SDS011;13668;52.154;5.580;2023-11-18T09:31:42;13.57;;;8.20;;
24357;SDS011;13668;52.154;5.580;2023-11-18T09:34:08;14.50;;;7.63;;
24357;SDS011;13668;52.154;5.580;2023-11-18T09:36:40;14.77;;;7.47;;
24357;SDS011;13668;52.154;5.580;2023-11-18T09:39:08;13.55;;;7.75;;
24357;SDS011;13668;52.154;5.580;2023-11-18T09:41:40;13.45;;;7.10;;
24357;SDS011;13668;52.154;5.580;2023-11-18T09:44:06;16.98;;;7.35;;
24357;SDS011;13668;52.154;5.580;2023-11-18T09:46:32;10.32;;;6.82;;
24357;SDS011;13668;52.154;5.580;2023-11-18T09:49:12;13.50;;;7.38;;
24357;SDS011;13668;52.154;5.580;2023-11-18T09:51:43;19.77;;;7.28;;
24357;SDS011;13668;52.154;5.580;2023-11-18T09:54:16;10.90;;;6.15;;
24357;SDS011;13668;52.154;5.580;2023-11-18T10:01:50;12.00;;;7.00;;
24357;SDS011;13668;52.154;5.580;2023-11-18T10:04:18;13.40;;;7.45;;
24357;SDS011;13668;52.154;5.580;2023-11-18T10:06:48;11.52;;;6.70;;
24357;SDS011;13668;52.154;5.580;2023-11-18T10:09:18;11.68;;;7.10;;
24357;SDS011;13668;52.154;5.580;2023-11-18T10:11:53;13.88;;;7.68;;
24357;SDS011;13668;52.154;5.580;2023-11-18T10:14:25;15.65;;;6.82;;
24357;SDS011;13668;52.154;5.580;2023-11-18T10:16:51;14.02;;;6.95;;
24357;SDS011;13668;52.154;5.580;2023-11-18T10:19:19;10.30;;;6.80;;
24357;SDS011;13668;52.154;5.580;2023-11-18T10:22:05;15.15;;;7.85;;
24357;SDS011;13668;52.154;5.580;2023-11-18T10:24:47;10.60;;;6.53;;
24357;SDS011;13668;52.154;5.580;2023-11-18T10:27:14;19.60;;;7.78;;
24357;SDS011;13668;52.154;5.580;2023-11-18T10:29:40;12.13;;;7.40;;
24357;SDS011;13668;52.154;5.580;2023-11-18T10:32:07;12.52;;;6.13;;
24357;SDS011;13668;52.154;5.580;2023-11-18T10:34:35;16.75;;;6.68;;
24357;SDS011;13668;52.154;5.580;2023-11-18T10:37:01;11.60;;;6.85;;
24357;SDS011;13668;52.154;5.580;2023-11-18T10:39:31;11.85;;;7.28;;
24357;SDS011;13668;52.154;5.580;2023-11-18T10:42:00;11.00;;;6.88;;
24357;SDS011;13668;52.154;5.580;2023-11-18T10:44:26;13.60;;;6.72;;
24357;SDS011;13668;52.154;5.580;2023-11-18T10:46:52;10.15;;;6.32;;
24357;SDS011;13668;52.154;5.580;2023-11-18T10:49:20;8.93;;;5.72;;
24357;SDS011;13668;52.154;5.580;2023-11-18T10:51:46;14.15;;;6.28;;
24357;SDS011;13668;52.154;5.580;2023-11-18T10:54:15;11.80;;;5.93;;
24357;SDS011;13668;52.154;5.580;2023-11-18T10:56:47;12.90;;;5.90;;
24357;SDS011;13668;52.154;5.580;2023-11-18T10:59:13;11.15;;;6.13;;
24357;SDS011;13668;52.154;5.580;2023-11-18T11:01:43;10.32;;;5.90;;
24357;SDS011;13668;52.154;5.580;2023-11-18T11:06:45;13.77;;;6.18;;
24357;SDS011;13668;52.154;5.580;2023-11-18T11:09:18;13.77;;;6.15;;
24357;SDS011;13668;52.154;5.580;2023-11-18T11:11:50;10.70;;;6.22;;
24357;SDS011;13668;52.154;5.580;2023-11-18T11:14:17;13.43;;;5.82;;
24357;SDS011;13668;52.154;5.580;2023-11-18T11:16:47;10.52;;;5.60;;
24357;SDS011;13668;52.154;5.580;2023-11-18T11:19:30;11.43;;;5.55;;
24357;SDS011;13668;52.154;5.580;2023-11-18T11:22:09;11.32;;;5.88;;
24357;SDS011;13668;52.154;5.580;2023-11-18T11:27:17;12.60;;;6.80;;
24357;SDS011;13668;52.154;5.580;2023-11-18T11:30:01;10.40;;;6.25;;
24357;SDS011;13668;52.154;5.580;2023-11-18T11:32:36;13.57;;;6.32;;
24357;SDS011;13668;52.154;5.580;2023-11-18T11:35:07;11.85;;;5.22;;
24357;SDS011;13668;52.154;5.580;2023-11-18T11:37:33;12.07;;;5.72;;
24357;SDS011;13668;52.154;5.580;2023-11-18T11:40:02;7.75;;;5.68;;
24357;SDS011;13668;52.154;5.580;2023-11-18T11:42:37;10.93;;;6.03;;
24357;SDS011;13668;52.154;5.580;2023-11-18T11:45:05;8.73;;;5.93;;
24357;SDS011;13668;52.154;5.580;2023-11-18T11:47:44;9.90;;;5.65;;
24357;SDS011;13668;52.154;5.580;2023-11-18T11:50:13;9.95;;;5.72;;
24357;SDS011;13668;52.154;5.580;2023-11-18T11:52:47;10.82;;;6.65;;
24357;SDS011;13668;52.154;5.580;2023-11-18T11:55:20;9.02;;;5.78;;
24357;SDS011;13668;52.154;5.580;2023-11-18T11:57:52;9.43;;;5.60;;
24357;SDS011;13668;52.154;5.580;2023-11-18T12:00:18;9.20;;;4.85;;
24357;SDS011;13668;52.154;5.580;2023-11-18T12:02:50;11.13;;;5.13;;
24357;SDS011;13668;52.154;5.580;2023-11-18T12:05:19;7.65;;;5.03;;
24357;SDS011;13668;52.154;5.580;2023-11-18T12:07:50;9.55;;;5.43;;
24357;SDS011;13668;52.154;5.580;2023-11-18T12:10:19;12.77;;;6.10;;
24357;SDS011;13668;52.154;5.580;2023-11-18T12:12:46;7.40;;;5.15;;
24357;SDS011;13668;52.154;5.580;2023-11-18T12:15:12;9.60;;;5.28;;
24357;SDS011;13668;52.154;5.580;2023-11-18T12:20:39;5.97;;;3.92;;
24357;SDS011;13668;52.154;5.580;2023-11-18T12:23:07;7.43;;;5.28;;
24357;SDS011;13668;52.154;5.580;2023-11-18T12:25:40;10.32;;;6.30;;
24357;SDS011;13668;52.154;5.580;2023-11-18T12:28:14;7.63;;;4.70;;
24357;SDS011;13668;52.154;5.580;2023-11-18T12:30:41;7.57;;;5.30;;
24357;SDS011;13668;52.154;5.580;2023-11-18T12:33:17;11.00;;;5.07;;
24357;SDS011;13668;52.154;5.580;2023-11-18T12:41:03;9.07;;;4.47;;
24357;SDS011;13668;52.154;5.580;2023-11-18T12:43:49;8.90;;;4.97;;
24357;SDS011;13668;52.154;5.580;2023-11-18T12:49:02;5.82;;;4.35;;
24357;SDS011;13668;52.154;5.580;2023-11-18T12:51:30;6.53;;;4.03;;
24357;SDS011;13668;52.154;5.580;2023-11-18T12:56:46;5.55;;;3.85;;
24357;SDS011;13668;52.154;5.580;2023-11-18T12:59:18;6.07;;;3.63;;
24357;SDS011;13668;52.154;5.580;2023-11-18T13:01:48;5.65;;;3.88;;
24357;SDS011;13668;52.154;5.580;2023-11-18T13:04:30;5.97;;;3.60;;
24357;SDS011;13668;52.154;5.580;2023-11-18T13:06:56;6.95;;;3.53;;
24357;SDS011;13668;52.154;5.580;2023-11-18T13:09:23;5.97;;;3.72;;
24357;SDS011;13668;52.154;5.580;2023-11-18T13:11:58;9.68;;;5.20;;
24357;SDS011;13668;52.154;5.580;2023-11-18T13:14:29;9.57;;;3.95;;
24357;SDS011;13668;52.154;5.580;2023-11-18T13:16:55;4.32;;;3.42;;
24357;SDS011;13668;52.154;5.580;2023-11-18T13:19:26;5.82;;;4.00;;
24357;SDS011;13668;52.154;5.580;2023-11-18T13:21:56;5.85;;;3.72;;
24357;SDS011;13668;52.154;5.580;2023-11-18T13:24:22;5.68;;;3.20;;
24357;SDS011;13668;52.154;5.580;2023-11-18T13:26:48;5.03;;;3.58;;
24357;SDS011;13668;52.154;5.580;2023-11-18T13:29:14;4.95;;;3.58;;
24357;SDS011;13668;52.154;5.580;2023-11-18T13:31:41;5.28;;;3.22;;
24357;SDS011;13668;52.154;5.580;2023-11-18T13:34:07;8.73;;;3.50;;
24357;SDS011;13668;52.154;5.580;2023-11-18T13:36:35;12.15;;;4.13;;
24357;SDS011;13668;52.154;5.580;2023-11-18T13:39:04;15.27;;;6.20;;
24357;SDS011;13668;52.154;5.580;2023-11-18T13:41:32;9.63;;;3.83;;
24357;SDS011;13668;52.154;5.580;2023-11-18T13:43:59;7.82;;;4.13;;
24357;SDS011;13668;52.154;5.580;2023-11-18T13:46:25;4.13;;;3.20;;
24357;SDS011;13668;52.154;5.580;2023-11-18T13:48:51;4.68;;;3.30;;
24357;SDS011;13668;52.154;5.580;2023-11-18T13:51:18;4.40;;;3.72;;
24357;SDS011;13668;52.154;5.580;2023-11-18T13:53:45;5.68;;;3.50;;
24357;SDS011;13668;52.154;5.580;2023-11-18T13:56:13;5.72;;;3.10;;
24357;SDS011;13668;52.154;5.580;2023-11-18T13:58:41;5.05;;;3.60;;
24357;SDS011;13668;52.154;5.580;2023-11-18T14:01:07;5.97;;;2.92;;
24357;SDS011;13668;52.154;5.580;2023-11-18T14:03:34;4.00;;;3.28;;
24357;SDS011;13668;52.154;5.580;2023-11-18T14:06:09;5.72;;;3.10;;
24357;SDS011;13668;52.154;5.580;2023-11-18T14:08:36;4.85;;;2.70;;
24357;SDS011;13668;52.154;5.580;2023-11-18T14:11:02;3.75;;;3.38;;
24357;SDS011;13668;52.154;5.580;2023-11-18T14:13:30;4.88;;;2.67;;
24357;SDS011;13668;52.154;5.580;2023-11-18T14:15:58;5.10;;;3.15;;
24357;SDS011;13668;52.154;5.580;2023-11-18T14:18:25;4.43;;;2.92;;
24357;SDS011;13668;52.154;5.580;2023-11-18T14:20:53;3.60;;;2.65;;
24357;SDS011;13668;52.154;5.580;2023-11-18T14:23:20;3.03;;;2.50;;
24357;SDS011;13668;52.154;5.580;2023-11-18T14:25:47;2.30;;;2.05;;
24357;SDS011;13668;52.154;5.580;2023-11-18T14:28:13;4.88;;;2.40;;
24357;SDS011;13668;52.154;5.580;2023-11-18T14:30:39;2.72;;;1.65;;
24357;SDS011;13668;52.154;5.580;2023-11-18T14:33:06;2.58;;;1.95;;
24357;SDS011;13668;52.154;5.580;2023-11-18T14:35:32;2.67;;;1.83;;
24357;SDS011;13668;52.154;5.580;2023-11-18T14:37:59;3.28;;;2.08;;
24357;SDS011;13668;52.154;5.580;2023-11-18T14:40:26;2.15;;;1.90;;
24357;SDS011;13668;52.154;5.580;2023-11-18T14:42:53;2.97;;;2.05;;
24357;SDS011;13668;52.154;5.580;2023-11-18T14:45:19;4.18;;;2.40;;
24357;SDS011;13668;52.154;5.580;2023-11-18T14:47:45;2.53;;;2.13;;
24357;SDS011;13668;52.154;5.580;2023-11-18T14:50:13;2.92;;;1.95;;
24357;SDS011;13668;52.154;5.580;2023-11-18T14:55:11;3.47;;;2.08;;
24357;SDS011;13668;52.154;5.580;2023-11-18T14:57:40;5.00;;;2.30;;
24357;SDS011;13668;52.154;5.580;2023-11-18T15:00:09;2.90;;;2.03;;